createdAt,value
2022-08-07T00:00:35.566Z,99457.16
2022-08-07T00:03:39.060Z,99459.28
2022-08-07T00:06:51.828Z,99469.38
2022-08-07T00:10:19.014Z,99464.28
2022-08-07T00:13:25.580Z,99463.41
2022-08-07T00:16:31.834Z,99460.75
2022-08-07T00:20:02.586Z,99459.22
2022-08-07T00:22:59.270Z,99471.28
2022-08-07T00:26:18.791Z,99455.38
2022-08-07T00:29:38.640Z,99455.59
2022-08-07T00:32:41.445Z,99462.69
2022-08-07T00:35:49.723Z,99456.81
2022-08-07T00:38:51.907Z,99455.44
2022-08-07T00:42:01.741Z,99459.50
2022-08-07T00:45:16.066Z,99451.72
2022-08-07T00:48:18.718Z,99452.81
2022-08-07T00:51:58.342Z,99456.72
2022-08-07T00:54:53.742Z,99450.66
2022-08-07T00:57:56.373Z,99445.53
2022-08-07T01:00:58.716Z,99446.66
2022-08-07T01:04:00.862Z,99450.47
2022-08-07T01:07:04.601Z,99444.38
2022-08-07T01:10:11.235Z,99438.25
2022-08-07T01:13:16.442Z,99440.22
2022-08-07T01:16:30.300Z,99444.72
2022-08-07T01:19:38.393Z,99438.63
2022-08-07T01:22:46.633Z,99444.09
2022-08-07T01:25:55.266Z,99433.53
2022-08-07T01:28:58.284Z,99432.81
2022-08-07T01:32:00.380Z,99442.75
2022-08-07T01:35:17.175Z,99435.81
2022-08-07T01:38:24.846Z,99438.47
2022-08-07T01:41:27.789Z,99432.19
2022-08-07T01:44:29.786Z,99435.81
2022-08-07T01:48:18.867Z,99440.22
2022-08-07T01:50:57.483Z,99429.66
2022-08-07T01:54:12.076Z,99428.09
2022-08-07T01:57:27.723Z,99432.19
2022-08-07T02:00:31.224Z,99429.78
2022-08-07T02:03:48.552Z,99420.25
2022-08-07T02:06:52.253Z,99415.84
2022-08-07T02:09:58.300Z,99418.66
2022-08-07T02:13:03.210Z,99415.16
2022-08-07T02:16:07.554Z,99418.72
2022-08-07T02:20:07.770Z,99412.84
2022-08-07T02:22:40.923Z,99412.22
2022-08-07T02:26:31.380Z,99404.97
2022-08-07T02:29:13.771Z,99406.78
2022-08-07T02:32:18.442Z,99407.00
2022-08-07T02:36:29.286Z,99407.00
2022-08-07T02:38:50.810Z,99409.84
2022-08-07T02:42:00.923Z,99408.31
2022-08-07T02:45:55.908Z,99404.84
2022-08-07T02:48:26.388Z,99402.16
2022-08-07T02:51:42.424Z,99410.31
2022-08-07T02:54:52.232Z,99401.41
2022-08-07T02:58:09.743Z,99405.09
2022-08-07T03:01:36.262Z,99398.63
2022-08-07T03:04:39.623Z,99406.16
2022-08-07T03:08:05.073Z,99404.41
2022-08-07T03:11:04.100Z,99401.47
2022-08-07T03:14:07.942Z,99404.94
2022-08-07T03:17:12.197Z,99410.56
2022-08-07T03:20:16.745Z,99409.81
2022-08-07T03:23:20.148Z,99403.66
2022-08-07T03:26:36.229Z,99403.59
2022-08-07T03:29:53.221Z,99403.72
2022-08-07T03:32:58.823Z,99391.28
2022-08-07T03:36:00.928Z,99393.09
2022-08-07T03:39:06.191Z,99396.63
2022-08-07T03:42:11.439Z,99396.63
2022-08-07T03:45:29.926Z,99393.88
2022-08-07T03:48:34.863Z,99392.06
2022-08-07T03:52:01.220Z,99391.28
2022-08-07T03:55:06.923Z,99396.63
2022-08-07T03:59:06.776Z,99391.34
2022-08-07T04:01:32.536Z,99395.84
2022-08-07T04:04:41.869Z,99398.31
2022-08-07T04:07:47.770Z,99387.06
2022-08-07T04:10:54.115Z,99401.03
2022-08-07T04:14:37.763Z,99406.25
2022-08-07T04:18:56.632Z,99400.91
2022-08-07T04:20:57.437Z,99406.25
2022-08-07T04:24:03.745Z,99405.47
2022-08-07T04:27:15.177Z,99401.91
2022-08-07T04:30:39.375Z,99406.25
2022-08-07T04:33:45.803Z,99398.94
2022-08-07T04:36:49.606Z,99403.84
2022-08-07T04:39:51.342Z,99403.53
2022-08-07T04:42:53.549Z,99399.75
2022-08-07T04:46:01.686Z,99401.38
2022-08-07T04:49:17.900Z,99400.31
2022-08-07T04:52:28.480Z,99402.13
2022-08-07T04:58:12.052Z,99396.63
2022-08-07T05:02:25.507Z,99403.50
2022-08-07T05:05:53.476Z,99410.34
2022-08-07T05:09:00.814Z,99409.16
2022-08-07T05:12:06.455Z,99405.25
2022-08-07T05:15:23.049Z,99406.59
2022-08-07T05:18:27.609Z,99418.63
2022-08-07T05:22:00.691Z,99412.06
2022-08-07T05:24:57.330Z,99415.34
2022-08-07T05:28:21.196Z,99414.06
2022-08-07T05:31:34.770Z,99412.94
2022-08-07T05:34:37.835Z,99415.28
2022-08-07T05:37:42.260Z,99411.41
2022-08-07T05:40:50.658Z,99413.09
2022-08-07T05:44:11.845Z,99412.97
2022-08-07T05:47:20.908Z,99425.28
2022-08-07T05:50:43.038Z,99433.97
2022-08-07T05:54:08.551Z,99435.59
2022-08-07T05:57:08.319Z,99436.22
2022-08-07T06:00:16.580Z,99439.56
2022-08-07T06:03:20.528Z,99439.25
2022-08-07T06:06:24.521Z,99432.75
2022-08-07T06:10:03.862Z,99435.06
2022-08-07T06:12:55.045Z,99429.31
2022-08-07T06:15:58.166Z,99437.16
2022-08-07T06:19:00.790Z,99434.94
2022-08-07T06:22:16.135Z,99439.09
2022-08-07T06:25:25.409Z,99438.72
2022-08-07T06:28:32.274Z,99442.97
2022-08-07T06:31:46.516Z,99444.50
2022-08-07T06:34:51.350Z,99450.25
2022-08-07T06:37:53.117Z,99451.91
2022-08-07T06:40:57.434Z,99441.56
2022-08-07T06:44:01.591Z,99440.34
2022-08-07T06:47:10.523Z,99448.03
2022-08-07T06:50:18.943Z,99445.84
2022-08-07T06:55:27.191Z,99432.06
2022-08-07T06:56:48.426Z,99437.75
2022-08-07T07:00:11.758Z,99431.88
2022-08-07T07:03:26.351Z,99436.78
2022-08-07T07:07:00.320Z,99434.56
2022-08-07T07:10:02.805Z,99430.66
2022-08-07T07:13:08.206Z,99432.16
2022-08-07T07:16:19.487Z,99430.69
2022-08-07T07:19:55.895Z,99427.34
2022-08-07T07:24:08.485Z,99437.63
2022-08-07T07:26:34.176Z,99432.25
2022-08-07T07:29:56.280Z,99429.72
2022-08-07T07:32:59.651Z,99434.50
2022-08-07T07:36:12.632Z,99434.00
2022-08-07T07:39:19.894Z,99429.13
2022-08-07T07:42:30.046Z,99424.84
2022-08-07T07:46:36.533Z,99424.03
2022-08-07T07:49:08.800Z,99423.28
2022-08-07T07:52:21.842Z,99414.84
2022-08-07T07:55:26.343Z,99420.69
2022-08-07T07:58:41.099Z,99409.94
2022-08-07T08:02:03.775Z,99408.31
2022-08-07T08:05:14.347Z,99407.25
2022-08-07T08:08:35.185Z,99407.25
2022-08-07T08:11:59.898Z,99408.41
2022-08-07T08:15:00.923Z,99412.19
2022-08-07T08:18:17.985Z,99405.75
2022-08-07T08:21:55.474Z,99407.56
2022-08-07T08:25:26.944Z,99406.88
2022-08-07T08:28:45.737Z,99387.13
2022-08-07T08:31:59.280Z,99393.38
2022-08-07T08:35:17.174Z,99399.75
2022-08-07T08:38:25.858Z,99398.50
2022-08-07T08:41:56.635Z,99399.47
2022-08-07T08:45:05.363Z,99403.13
2022-08-07T08:48:10.687Z,99391.00
2022-08-07T08:51:29.584Z,99397.78
2022-08-07T08:54:52.031Z,99398.22
2022-08-07T08:58:01.297Z,99396.53
2022-08-07T09:01:15.313Z,99398.31
2022-08-07T09:04:26.000Z,99393.69
2022-08-07T09:07:46.195Z,99393.53
2022-08-07T09:10:53.256Z,99386.41
2022-08-07T09:14:02.458Z,99388.44
2022-08-07T09:17:11.657Z,99382.28
2022-08-07T09:20:35.553Z,99382.34
2022-08-07T09:24:30.793Z,99380.09
2022-08-07T09:27:16.744Z,99385.13
2022-08-07T09:30:20.713Z,99373.47
2022-08-07T09:33:52.603Z,99377.16
2022-08-07T09:37:02.491Z,99376.34
2022-08-07T09:40:17.917Z,99377.88
2022-08-07T09:44:03.666Z,99380.03
2022-08-07T09:47:55.665Z,99369.94
2022-08-07T09:50:33.047Z,99364.00
2022-08-07T09:53:40.877Z,99368.19
2022-08-07T09:57:13.037Z,99359.41
2022-08-07T10:00:20.395Z,99354.31
2022-08-07T10:04:03.283Z,99350.19
2022-08-07T10:07:02.301Z,99346.78
2022-08-07T10:10:21.689Z,99336.69
2022-08-07T10:14:00.824Z,99335.63
2022-08-07T10:17:16.506Z,99342.09
2022-08-07T10:20:30.251Z,99339.69
2022-08-07T10:24:06.811Z,99343.59
2022-08-07T10:27:11.535Z,99344.00
2022-08-07T10:30:15.684Z,99340.53
2022-08-07T10:34:06.749Z,99343.03
2022-08-07T10:37:12.329Z,99342.16
2022-08-07T10:40:18.037Z,99341.94
2022-08-07T10:43:34.105Z,99341.22
2022-08-07T10:46:40.679Z,99339.59
2022-08-07T10:49:50.947Z,99340.59
2022-08-07T10:53:07.950Z,99329.22
2022-08-07T10:56:20.709Z,99311.81
2022-08-07T10:59:36.998Z,99317.97
2022-08-07T11:02:42.166Z,99315.63
2022-08-07T11:05:57.918Z,99314.09
2022-08-07T11:09:02.876Z,99307.16
2022-08-07T11:12:06.886Z,99306.00
2022-08-07T11:15:17.346Z,99299.63
2022-08-07T11:18:22.091Z,99299.44
2022-08-07T11:21:41.044Z,99299.94
2022-08-07T11:24:47.861Z,99299.28
2022-08-07T11:28:03.013Z,99292.84
2022-08-07T11:31:08.530Z,99283.84
2022-08-07T11:34:17.545Z,99274.59
2022-08-07T11:37:38.328Z,99279.50
2022-08-07T11:40:49.941Z,99278.66
2022-08-07T11:44:12.253Z,99274.13
2022-08-07T11:47:23.030Z,99276.25
2022-08-07T11:50:35.240Z,99274.09
2022-08-07T11:54:01.087Z,99266.72
2022-08-07T11:57:57.902Z,99264.78
2022-08-07T12:01:02.389Z,99262.44
2022-08-07T12:04:14.794Z,99261.94
2022-08-07T12:07:26.968Z,99253.06
2022-08-07T12:10:35.555Z,99246.16
2022-08-07T12:13:47.718Z,99252.25
2022-08-07T12:16:53.881Z,99249.97
2022-08-07T12:20:04.833Z,99249.16
2022-08-07T12:23:14.675Z,99245.13
2022-08-07T12:26:29.884Z,99242.53
2022-08-07T12:29:38.447Z,99239.38
2022-08-07T12:32:43.802Z,99236.41
2022-08-07T12:35:48.206Z,99239.47
2022-08-07T12:39:01.794Z,99239.91
2022-08-07T12:42:07.055Z,99237.31
2022-08-07T12:45:12.456Z,99225.56
2022-08-07T12:48:27.679Z,99222.47
2022-08-07T12:51:51.273Z,99229.28
2022-08-07T12:55:05.639Z,99223.28
2022-08-07T12:58:14.570Z,99214.44
2022-08-07T13:01:20.164Z,99202.38
2022-08-07T13:04:34.242Z,99212.72
2022-08-07T13:08:13.920Z,99205.22
2022-08-07T13:11:23.524Z,99202.97
2022-08-07T13:14:31.710Z,99200.06
2022-08-07T13:17:40.782Z,99205.50
2022-08-07T13:20:51.859Z,99204.59
2022-08-07T13:24:01.085Z,99203.69
2022-08-07T13:27:10.639Z,99188.84
2022-08-07T13:30:19.456Z,99192.97
2022-08-07T13:34:32.034Z,99189.84
2022-08-07T13:37:04.241Z,99193.44
2022-08-07T13:40:35.588Z,99191.56
2022-08-07T13:43:42.600Z,99184.72
2022-08-07T13:46:49.373Z,99187.75
2022-08-07T13:50:35.671Z,99185.88
2022-08-07T13:53:19.451Z,99175.63
2022-08-07T13:56:36.327Z,99179.72
2022-08-07T13:59:45.467Z,99180.41
2022-08-07T14:02:54.110Z,99182.69
2022-08-07T14:06:01.044Z,99176.19
2022-08-07T14:09:04.795Z,99164.84
2022-08-07T14:12:10.305Z,99174.97
2022-08-07T14:15:18.838Z,99172.84
2022-08-07T14:18:30.625Z,99165.13
2022-08-07T14:22:01.367Z,99163.91
2022-08-07T14:25:01.999Z,99157.22
2022-08-07T14:28:12.916Z,99158.31
2022-08-07T14:31:16.542Z,99151.66
2022-08-07T14:34:22.746Z,99155.03
2022-08-07T14:37:36.369Z,99150.69
2022-08-07T14:40:48.619Z,99149.50
2022-08-07T14:43:58.116Z,99151.69
2022-08-07T14:47:14.767Z,99141.94
2022-08-07T14:50:20.633Z,99135.69
2022-08-07T14:56:47.882Z,99139.78
2022-08-07T15:00:03.392Z,99135.75
2022-08-07T15:03:18.888Z,99132.44
2022-08-07T15:06:33.941Z,99132.75
2022-08-07T15:09:57.761Z,99124.97
2022-08-07T15:13:12.356Z,99123.25
2022-08-07T15:16:33.528Z,99113.09
2022-08-07T15:20:31.145Z,99118.25
2022-08-07T15:26:28.631Z,99118.03
2022-08-07T15:30:06.371Z,99115.03
2022-08-07T15:33:03.990Z,99112.88
2022-08-07T15:36:09.467Z,99111.94
2022-08-07T15:39:13.496Z,99107.69
2022-08-07T15:45:55.673Z,99103.13
2022-08-07T15:49:16.409Z,99103.47
2022-08-07T15:52:21.711Z,99109.94
2022-08-07T15:55:58.476Z,99097.88
2022-08-07T15:59:01.833Z,99105.97
2022-08-07T16:02:05.101Z,99100.41
2022-08-07T16:05:15.202Z,99093.84
2022-08-07T16:08:31.646Z,99092.91
2022-08-07T16:11:52.603Z,99096.03
2022-08-07T16:15:06.863Z,99097.91
2022-08-07T16:18:13.574Z,99098.63
2022-08-07T16:22:03.243Z,99097.38
2022-08-07T16:25:04.771Z,99087.91
2022-08-07T16:30:07.195Z,99082.97
2022-08-07T16:31:57.671Z,99092.88
2022-08-07T16:35:32.556Z,99085.69
2022-08-07T16:39:00.614Z,99087.09
2022-08-07T16:42:23.913Z,99078.59
2022-08-07T16:46:21.266Z,99086.44
2022-08-07T16:50:20.255Z,99088.22
2022-08-07T16:52:55.560Z,99093.91
2022-08-07T16:56:05.697Z,99092.69
2022-08-07T16:59:11.190Z,99095.56
2022-08-07T17:02:52.445Z,99093.94
2022-08-07T17:06:19.379Z,99094.19
2022-08-07T17:10:07.195Z,99092.13
2022-08-07T17:12:53.885Z,99088.06
2022-08-07T17:16:02.014Z,99089.31
2022-08-07T17:19:16.247Z,99084.66
2022-08-07T17:22:30.107Z,99090.84
2022-08-07T17:25:51.864Z,99085.91
2022-08-07T17:30:12.646Z,99091.84
2022-08-07T17:32:52.151Z,99089.41
2022-08-07T17:36:02.765Z,99087.19
2022-08-07T17:39:10.537Z,99083.97
2022-08-07T17:42:21.472Z,99086.06
2022-08-07T17:45:26.724Z,99086.47
2022-08-07T17:48:32.860Z,99085.97
2022-08-07T17:51:49.354Z,99085.50
2022-08-07T17:55:05.048Z,99080.53
2022-08-07T17:58:09.199Z,99080.94
2022-08-07T18:01:20.547Z,99081.06
2022-08-07T18:04:37.603Z,99085.69
2022-08-07T18:07:46.114Z,99084.94
2022-08-07T18:12:07.606Z,99080.66
2022-08-07T18:14:32.742Z,99089.16
2022-08-07T18:18:46.422Z,99089.38
2022-08-07T18:21:37.337Z,99086.19
2022-08-07T18:24:36.988Z,99089.25
2022-08-07T18:31:08.672Z,99099.75
2022-08-07T18:34:39.321Z,99097.16
2022-08-07T18:38:58.570Z,99100.22
2022-08-07T18:41:44.631Z,99099.84
2022-08-07T18:45:44.065Z,99104.88
2022-08-07T18:50:05.625Z,99115.31
2022-08-07T18:52:38.317Z,99118.41
2022-08-07T18:55:42.919Z,99118.84
2022-08-07T18:58:51.158Z,99127.47
2022-08-07T19:02:18.591Z,99123.50
2022-08-07T19:05:22.764Z,99127.56
2022-08-07T19:08:41.487Z,99134.03
2022-08-07T19:12:11.067Z,99133.75
2022-08-07T19:16:02.890Z,99134.22
2022-08-07T19:18:57.305Z,99139.97
2022-08-07T19:22:05.163Z,99146.88
2022-08-07T19:25:13.153Z,99146.50
2022-08-07T19:30:54.223Z,99147.53
2022-08-07T19:32:25.905Z,99153.94
2022-08-07T19:35:26.767Z,99158.25
2022-08-07T19:38:30.878Z,99162.38
2022-08-07T19:41:44.901Z,99171.78
2022-08-07T19:45:09.424Z,99171.13
2022-08-07T19:48:18.666Z,99179.34
2022-08-07T19:51:52.863Z,99169.75
2022-08-07T19:54:56.315Z,99166.91
2022-08-07T19:58:12.461Z,99171.69
2022-08-07T20:01:17.768Z,99168.22
2022-08-07T20:04:31.417Z,99166.81
2022-08-07T20:07:46.038Z,99169.59
2022-08-07T20:10:55.916Z,99168.88
2022-08-07T20:13:59.913Z,99170.47
2022-08-07T20:17:05.940Z,99164.53
2022-08-07T20:20:10.383Z,99166.59
2022-08-07T20:23:40.264Z,99168.66
2022-08-07T20:26:44.706Z,99167.78
2022-08-07T20:29:59.358Z,99172.84
2022-08-07T20:33:02.952Z,99169.06
2022-08-07T20:36:08.062Z,99175.53
2022-08-07T20:40:01.261Z,99176.22
2022-08-07T20:42:38.437Z,99165.19
2022-08-07T20:46:27.062Z,99170.59
2022-08-07T20:49:59.168Z,99163.66
2022-08-07T20:52:51.100Z,99169.06
2022-08-07T20:55:57.277Z,99156.53
2022-08-07T20:59:02.749Z,99158.47
2022-08-07T21:02:32.067Z,99167.78
2022-08-07T21:05:51.501Z,99167.97
2022-08-07T21:09:03.159Z,99162.16
2022-08-07T21:12:15.250Z,99161.28
2022-08-07T21:15:58.027Z,99169.34
2022-08-07T21:18:53.284Z,99171.19
2022-08-07T21:21:57.416Z,99175.66
2022-08-07T21:25:12.718Z,99179.53
2022-08-07T21:28:47.490Z,99179.22
2022-08-07T21:32:42.488Z,99172.84
2022-08-07T21:35:11.465Z,99179.72
2022-08-07T21:38:19.105Z,99170.44
2022-08-07T21:41:38.164Z,99177.59
2022-08-07T21:44:57.005Z,99176.47
2022-08-07T21:48:02.445Z,99181.78
2022-08-07T21:51:19.738Z,99180.03
2022-08-07T21:54:32.549Z,99186.97
2022-08-07T21:57:44.776Z,99187.75
2022-08-07T22:00:57.115Z,99184.56
2022-08-07T22:04:02.658Z,99187.38
2022-08-07T22:07:07.608Z,99189.00
2022-08-07T22:10:10.604Z,99196.03
2022-08-07T22:13:15.997Z,99192.00
2022-08-07T22:16:42.255Z,99191.09
2022-08-07T22:19:54.597Z,99184.84
2022-08-07T22:23:01.902Z,99182.81
2022-08-07T22:26:06.200Z,99187.00
2022-08-07T22:29:15.333Z,99187.28
2022-08-07T22:32:20.849Z,99191.09
2022-08-07T22:35:23.468Z,99196.31
2022-08-07T22:38:48.196Z,99192.94
2022-08-07T22:42:03.448Z,99198.81
2022-08-07T22:46:04.131Z,99192.84
2022-08-07T22:49:02.115Z,99192.25
2022-08-07T22:52:36.760Z,99191.38
2022-08-07T22:55:46.897Z,99191.59
2022-08-07T22:59:07.294Z,99195.16
2022-08-07T23:02:20.772Z,99187.28
2022-08-07T23:06:09.038Z,99189.09
2022-08-07T23:10:03.535Z,99184.00
2022-08-07T23:12:52.955Z,99192.06
2022-08-07T23:16:06.063Z,99192.19
2022-08-07T23:19:58.042Z,99185.22
2022-08-07T23:24:06.184Z,99178.69
2022-08-07T23:26:58.586Z,99180.50
2022-08-07T23:30:37.278Z,99185.72
2022-08-07T23:34:35.327Z,99182.25
2022-08-07T23:37:18.991Z,99176.84
2022-08-07T23:40:28.990Z,99183.09
2022-08-07T23:43:43.853Z,99183.91
2022-08-07T23:46:59.791Z,99179.53
2022-08-07T23:50:16.470Z,99190.53
2022-08-07T23:53:49.560Z,99179.94
2022-08-07T23:56:55.055Z,99187.44
